createdAt,value
2023-01-31T00:03:33.202Z,81.20
2023-01-31T00:08:38.503Z,80.60
2023-01-31T00:13:42.768Z,80.40
2023-01-31T00:18:46.593Z,80.30
2023-01-31T00:23:52.383Z,79.80
2023-01-31T00:28:58.728Z,79.60
2023-01-31T00:34:02.747Z,79.30
2023-01-31T00:39:08.765Z,79.50
2023-01-31T00:44:12.166Z,79.60
2023-01-31T00:49:15.545Z,79.50
2023-01-31T00:54:20.943Z,79.50
2023-01-31T00:59:24.294Z,79.30
2023-01-31T01:04:27.676Z,79.00
2023-01-31T01:09:32.678Z,78.00
2023-01-31T01:14:36.755Z,78.00
2023-01-31T01:19:40.195Z,77.40
2023-01-31T01:24:45.876Z,76.30
2023-01-31T01:29:49.251Z,75.90
2023-01-31T01:34:52.623Z,75.40
2023-01-31T01:39:57.515Z,74.80
2023-01-31T01:45:02.616Z,75.10
2023-01-31T01:50:13.292Z,75.70
2023-01-31T01:55:23.494Z,76.30
2023-01-31T02:00:30.276Z,75.70
2023-01-31T02:05:36.547Z,75.50
2023-01-31T02:10:46.738Z,75.80
2023-01-31T02:15:50.315Z,75.80
2023-01-31T02:21:33.845Z,75.20
2023-01-31T02:27:18.401Z,75.10
2023-01-31T02:32:48.829Z,75.70
2023-01-31T02:38:00.025Z,75.40
2023-01-31T02:43:12.151Z,74.90
2023-01-31T02:48:27.012Z,74.80
2023-01-31T02:53:34.359Z,74.60
2023-01-31T02:58:39.644Z,74.90
2023-01-31T03:03:44.600Z,74.90
2023-01-31T03:08:48.089Z,75.40
2023-01-31T03:14:04.808Z,75.30
2023-01-31T03:19:15.119Z,74.70
2023-01-31T03:24:19.604Z,74.30
2023-01-31T03:29:26.327Z,73.60
2023-01-31T03:34:32.220Z,72.80
2023-01-31T03:39:42.325Z,72.30
2023-01-31T03:44:52.057Z,71.90
2023-01-31T03:50:00.035Z,70.60
2023-01-31T03:55:08.946Z,70.40
2023-01-31T04:00:16.506Z,70.20
2023-01-31T04:05:25.072Z,70.30
2023-01-31T04:10:28.665Z,70.10
2023-01-31T04:15:32.763Z,69.60
2023-01-31T04:20:37.464Z,69.70
2023-01-31T04:25:40.858Z,70.30
2023-01-31T04:30:44.304Z,70.70
2023-01-31T04:35:49.375Z,71.30
2023-01-31T04:40:52.854Z,72.00
2023-01-31T04:45:56.265Z,72.40
2023-01-31T04:51:01.331Z,72.70
2023-01-31T04:56:05.838Z,72.70
2023-01-31T05:01:09.576Z,73.00
2023-01-31T05:06:14.340Z,72.70
2023-01-31T05:11:17.722Z,72.80
2023-01-31T05:16:21.583Z,73.50
2023-01-31T05:21:26.319Z,73.90
2023-01-31T05:26:29.745Z,74.00
2023-01-31T05:31:33.274Z,73.90
2023-01-31T05:36:38.009Z,74.60
2023-01-31T05:41:41.453Z,74.90
2023-01-31T05:46:44.864Z,74.70
2023-01-31T05:51:49.509Z,74.90
2023-01-31T05:56:52.991Z,74.70
2023-01-31T06:01:56.645Z,74.10
2023-01-31T06:07:01.539Z,73.90
2023-01-31T06:12:05.430Z,73.80
2023-01-31T06:17:09.989Z,73.40
2023-01-31T06:22:14.734Z,73.30
2023-01-31T06:27:18.110Z,73.10
2023-01-31T06:32:21.507Z,72.00
2023-01-31T06:37:26.455Z,72.50
2023-01-31T06:42:30.585Z,72.60
2023-01-31T06:47:34.323Z,72.80
2023-01-31T06:52:39.330Z,73.70
2023-01-31T06:57:47.761Z,74.10
2023-01-31T07:02:51.185Z,74.60
2023-01-31T07:07:56.227Z,74.50
2023-01-31T07:13:01.499Z,74.70
2023-01-31T07:18:06.253Z,74.40
2023-01-31T07:23:11.277Z,74.20
2023-01-31T07:28:14.682Z,74.30
2023-01-31T07:33:18.087Z,74.30
2023-01-31T07:38:23.064Z,74.30
2023-01-31T07:43:26.554Z,74.10
2023-01-31T07:48:29.900Z,74.60
2023-01-31T07:53:36.646Z,74.60
2023-01-31T07:58:41.456Z,74.60
2023-01-31T08:03:44.827Z,74.60
2023-01-31T08:08:49.905Z,74.50
2023-01-31T08:13:53.307Z,74.60
2023-01-31T08:18:57.288Z,74.40
2023-01-31T08:24:02.021Z,73.70
2023-01-31T08:29:05.520Z,74.10
2023-01-31T08:34:09.216Z,74.60
2023-01-31T08:39:14.061Z,74.80
2023-01-31T08:44:17.580Z,74.90
2023-01-31T08:49:20.960Z,74.30
2023-01-31T08:54:25.698Z,74.10
2023-01-31T08:59:29.421Z,74.10
2023-01-31T09:04:33.552Z,73.40
2023-01-31T09:09:38.533Z,73.50
2023-01-31T09:14:42.161Z,72.90
2023-01-31T09:19:45.939Z,73.60
2023-01-31T09:24:50.676Z,71.90
2023-01-31T09:29:54.358Z,72.30
2023-01-31T09:34:57.766Z,72.40
2023-01-31T09:40:02.486Z,72.50
2023-01-31T09:45:10.820Z,72.10
2023-01-31T09:50:21.808Z,72.20
2023-01-31T09:55:37.272Z,72.20
2023-01-31T10:00:48.772Z,71.80
2023-01-31T10:05:56.674Z,71.80
2023-01-31T10:11:04.823Z,72.70
2023-01-31T10:16:18.762Z,72.70
2023-01-31T10:21:27.281Z,73.10
2023-01-31T10:26:35.310Z,73.00
2023-01-31T10:31:45.598Z,73.50
2023-01-31T10:36:54.048Z,73.60
2023-01-31T10:42:09.975Z,73.30
2023-01-31T10:47:15.022Z,73.60
2023-01-31T10:52:33.221Z,73.40
2023-01-31T10:57:38.767Z,73.60
2023-01-31T11:02:42.439Z,73.70
2023-01-31T11:07:45.874Z,73.50
2023-01-31T11:12:56.388Z,73.10
2023-01-31T11:18:01.997Z,73.00
2023-01-31T11:23:08.256Z,72.40
2023-01-31T11:28:22.637Z,72.30
2023-01-31T11:33:39.759Z,72.30
2023-01-31T11:38:43.964Z,72.10
2023-01-31T11:43:48.723Z,72.40
2023-01-31T11:48:52.328Z,71.90
2023-01-31T11:53:56.642Z,72.50
2023-01-31T11:59:07.592Z,73.50
2023-01-31T12:04:18.479Z,74.00
2023-01-31T12:09:23.711Z,74.50
2023-01-31T12:14:39.590Z,74.70
2023-01-31T12:19:53.970Z,75.60
2023-01-31T12:25:05.536Z,76.50
2023-01-31T12:30:35.655Z,76.70
2023-01-31T12:35:51.488Z,76.60
2023-01-31T12:41:04.498Z,76.30
2023-01-31T12:46:18.704Z,76.30
2023-01-31T12:51:40.041Z,76.40
2023-01-31T12:57:02.838Z,76.30
2023-01-31T13:02:23.577Z,76.30
2023-01-31T13:07:35.448Z,76.20
2023-01-31T13:12:40.241Z,76.40
2023-01-31T13:17:46.433Z,77.50
2023-01-31T13:22:56.396Z,77.40
2023-01-31T13:28:03.739Z,77.00
2023-01-31T13:33:19.163Z,76.80
2023-01-31T13:38:24.700Z,76.30
2023-01-31T13:43:28.433Z,75.80
2023-01-31T13:48:38.903Z,75.40
2023-01-31T13:53:48.792Z,75.10
2023-01-31T13:58:53.188Z,75.50
2023-01-31T14:04:36.678Z,75.70
2023-01-31T14:09:45.886Z,75.10
2023-01-31T14:14:51.395Z,75.70
2023-01-31T14:20:08.139Z,75.60
2023-01-31T14:25:15.419Z,76.20
2023-01-31T14:30:38.820Z,75.80
2023-01-31T14:35:59.268Z,76.30
2023-01-31T14:41:11.044Z,76.60
2023-01-31T14:46:37.246Z,76.30
2023-01-31T14:52:08.784Z,76.50
2023-01-31T14:57:16.509Z,76.50
2023-01-31T15:02:39.814Z,76.60
2023-01-31T15:08:06.105Z,76.60
2023-01-31T15:13:35.633Z,76.40
2023-01-31T15:18:39.500Z,76.20
2023-01-31T15:23:44.856Z,77.10
2023-01-31T15:28:50.112Z,78.00
2023-01-31T15:33:59.055Z,77.90
2023-01-31T15:39:17.379Z,77.60
2023-01-31T15:44:22.376Z,77.30
2023-01-31T15:49:38.924Z,77.10
2023-01-31T15:54:57.924Z,77.10
2023-01-31T16:00:01.447Z,77.00
2023-01-31T16:05:07.219Z,76.60
2023-01-31T16:10:15.723Z,76.50
2023-01-31T16:15:23.235Z,76.70
2023-01-31T16:20:42.280Z,77.10
2023-01-31T16:25:53.976Z,77.20
2023-01-31T16:31:05.969Z,77.50
2023-01-31T16:36:15.747Z,77.50
2023-01-31T16:41:39.209Z,77.40
2023-01-31T16:46:46.073Z,77.40
2023-01-31T16:51:50.832Z,77.10
2023-01-31T16:57:09.181Z,76.90
2023-01-31T17:02:23.501Z,76.80
2023-01-31T17:07:30.921Z,76.70
2023-01-31T17:12:40.328Z,76.80
2023-01-31T17:17:43.959Z,77.10
2023-01-31T17:22:56.824Z,77.20
2023-01-31T17:28:07.008Z,77.30
2023-01-31T17:33:13.359Z,77.20
2023-01-31T17:38:17.359Z,77.10
2023-01-31T17:43:25.170Z,77.10
2023-01-31T17:48:28.591Z,78.10
2023-01-31T17:53:37.336Z,77.20
2023-01-31T17:58:46.479Z,77.20
2023-01-31T18:03:50.587Z,77.00
2023-01-31T18:08:54.017Z,77.10
2023-01-31T18:14:00.073Z,76.90
2023-01-31T18:19:03.770Z,77.10
2023-01-31T18:24:09.145Z,77.50
2023-01-31T18:29:19.514Z,78.00
2023-01-31T18:34:22.956Z,78.90
2023-01-31T18:39:26.483Z,79.40
2023-01-31T18:44:31.368Z,79.50
2023-01-31T18:49:34.767Z,79.50
2023-01-31T18:54:38.286Z,79.50
2023-01-31T18:59:43.108Z,79.70
2023-01-31T19:04:46.522Z,79.80
2023-01-31T19:09:50.152Z,79.80
2023-01-31T19:14:56.495Z,79.70
2023-01-31T19:19:59.962Z,79.80
2023-01-31T19:25:09.108Z,80.00
2023-01-31T19:30:15.581Z,79.90
2023-01-31T19:35:18.971Z,79.90
2023-01-31T19:40:22.807Z,79.90
2023-01-31T19:45:27.744Z,79.70
2023-01-31T19:50:31.112Z,79.80
2023-01-31T19:55:34.560Z,80.10
2023-01-31T20:00:39.375Z,80.10
2023-01-31T20:05:42.773Z,80.20
2023-01-31T20:10:46.196Z,80.20
2023-01-31T20:15:57.958Z,80.40
2023-01-31T20:21:01.791Z,80.70
2023-01-31T20:26:05.188Z,80.70
2023-01-31T20:31:12.228Z,80.70
2023-01-31T20:36:15.713Z,80.30
2023-01-31T20:41:19.732Z,80.40
2023-01-31T20:46:24.640Z,80.50
2023-01-31T20:51:28.431Z,81.00
2023-01-31T20:56:31.913Z,81.00
2023-01-31T21:01:36.830Z,80.90
2023-01-31T21:06:40.320Z,80.90
2023-01-31T21:11:43.738Z,80.50
2023-01-31T21:16:49.008Z,80.20
2023-01-31T21:21:52.392Z,79.90
2023-01-31T21:26:55.999Z,80.00
2023-01-31T21:32:01.200Z,80.20
2023-01-31T21:37:04.884Z,80.30
2023-01-31T21:42:18.106Z,80.30
2023-01-31T21:47:22.925Z,81.30
2023-01-31T21:52:26.527Z,80.50
2023-01-31T21:57:30.469Z,80.10
2023-01-31T22:02:35.654Z,80.10
2023-01-31T22:07:40.493Z,80.10
2023-01-31T22:12:44.155Z,79.80
2023-01-31T22:17:48.883Z,79.20
2023-01-31T22:22:52.243Z,79.00
2023-01-31T22:27:57.532Z,78.50
2023-01-31T22:33:02.302Z,78.20
2023-01-31T22:38:05.978Z,78.40
2023-01-31T22:43:11.667Z,78.00
2023-01-31T22:48:18.677Z,77.80
2023-01-31T22:53:22.164Z,76.70
2023-01-31T22:58:25.924Z,76.40
2023-01-31T23:03:30.720Z,75.50
2023-01-31T23:08:34.194Z,75.10
2023-01-31T23:13:38.182Z,76.30
2023-01-31T23:18:43.114Z,78.60
2023-01-31T23:23:47.375Z,83.00
2023-01-31T23:28:50.776Z,84.50
2023-01-31T23:33:55.479Z,86.00
2023-01-31T23:38:58.869Z,86.50
2023-01-31T23:44:02.674Z,87.30
2023-01-31T23:49:07.627Z,88.70
2023-01-31T23:54:11.562Z,86.60
2023-01-31T23:59:14.976Z,86.40
